sensor_id;sensor_type;location;lat;lon;timestamp;temperature;humidity
34572;DHT22;20808;48.974;8.452;2023-03-08T00:00:16;5.80;1.00
34572;DHT22;20808;48.974;8.452;2023-03-08T00:00:32;5.80;1.00
34572;DHT22;20808;48.974;8.452;2023-03-08T00:00:48;5.80;1.00
34572;DHT22;20808;48.974;8.452;2023-03-08T00:01:10;5.80;1.00
34572;DHT22;20808;48.974;8.452;2023-03-08T00:01:27;5.80;1.00
34572;DHT22;20808;48.974;8.452;2023-03-08T00:01:42;5.80;1.00
34572;DHT22;20808;48.974;8.452;2023-03-08T00:01:58;5.80;1.00
34572;DHT22;20808;48.974;8.452;2023-03-08T00:02:14;5.80;1.00
34572;DHT22;20808;48.974;8.452;2023-03-08T00:02:31;5.80;1.00
34572;DHT22;20808;48.974;8.452;2023-03-08T00:02:47;5.80;1.00
34572;DHT22;20808;48.974;8.452;2023-03-08T00:03:02;5.80;1.00
34572;DHT22;20808;48.974;8.452;2023-03-08T00:03:18;5.80;1.00
34572;DHT22;20808;48.974;8.452;2023-03-08T00:03:34;5.80;1.00
34572;DHT22;20808;48.974;8.452;2023-03-08T00:03:52;5.80;1.00
34572;DHT22;20808;48.974;8.452;2023-03-08T00:04:09;5.80;1.00
34572;DHT22;20808;48.974;8.452;2023-03-08T00:04:25;5.80;1.00
34572;DHT22;20808;48.974;8.452;2023-03-08T00:04:41;5.70;1.00
34572;DHT22;20808;48.974;8.452;2023-03-08T00:04:57;5.70;1.00
34572;DHT22;20808;48.974;8.452;2023-03-08T00:05:13;5.70;1.00
34572;DHT22;20808;48.974;8.452;2023-03-08T00:05:29;5.70;1.00
34572;DHT22;20808;48.974;8.452;2023-03-08T00:05:45;5.70;1.00
34572;DHT22;20808;48.974;8.452;2023-03-08T00:06:03;5.70;1.00
34572;DHT22;20808;48.974;8.452;2023-03-08T00:06:19;5.70;1.00
34572;DHT22;20808;48.974;8.452;2023-03-08T00:06:35;5.60;1.00
34572;DHT22;20808;48.974;8.452;2023-03-08T00:06:51;5.60;1.00
34572;DHT22;20808;48.974;8.452;2023-03-08T00:07:08;5.60;1.00
34572;DHT22;20808;48.974;8.452;2023-03-08T00:07:25;5.60;1.00
34572;DHT22;20808;48.974;8.452;2023-03-08T00:07:41;5.60;1.00
34572;DHT22;20808;48.974;8.452;2023-03-08T00:07:56;5.60;1.00
34572;DHT22;20808;48.974;8.452;2023-03-08T00:08:12;5.60;1.00
34572;DHT22;20808;48.974;8.452;2023-03-08T00:08:28;5.50;1.00
34572;DHT22;20808;48.974;8.452;2023-03-08T00:08:44;5.50;1.00
34572;DHT22;20808;48.974;8.452;2023-03-08T00:09:02;5.50;1.00
34572;DHT22;20808;48.974;8.452;2023-03-08T00:09:18;5.50;1.00
34572;DHT22;20808;48.974;8.452;2023-03-08T00:09:36;5.50;1.00
34572;DHT22;20808;48.974;8.452;2023-03-08T00:09:52;5.50;1.00
34572;DHT22;20808;48.974;8.452;2023-03-08T00:10:09;5.50;1.00
34572;DHT22;20808;48.974;8.452;2023-03-08T00:10:25;5.50;1.00
34572;DHT22;20808;48.974;8.452;2023-03-08T00:10:42;5.50;1.00
34572;DHT22;20808;48.974;8.452;2023-03-08T00:10:58;5.50;1.00
34572;DHT22;20808;48.974;8.452;2023-03-08T00:11:14;5.50;1.00
34572;DHT22;20808;48.974;8.452;2023-03-08T00:11:30;5.50;1.00
34572;DHT22;20808;48.974;8.452;2023-03-08T00:11:47;5.50;1.00
34572;DHT22;20808;48.974;8.452;2023-03-08T00:12:02;5.50;1.00
34572;DHT22;20808;48.974;8.452;2023-03-08T00:12:18;5.50;1.00
34572;DHT22;20808;48.974;8.452;2023-03-08T00:12:34;5.40;1.00
34572;DHT22;20808;48.974;8.452;2023-03-08T00:12:50;5.40;1.00
34572;DHT22;20808;48.974;8.452;2023-03-08T00:13:06;5.40;1.00
34572;DHT22;20808;48.974;8.452;2023-03-08T00:13:23;5.40;1.00
34572;DHT22;20808;48.974;8.452;2023-03-08T00:13:39;5.40;1.00
34572;DHT22;20808;48.974;8.452;2023-03-08T00:13:55;5.40;1.00
34572;DHT22;20808;48.974;8.452;2023-03-08T00:14:11;5.40;1.00
34572;DHT22;20808;48.974;8.452;2023-03-08T00:14:27;5.40;1.00
34572;DHT22;20808;48.974;8.452;2023-03-08T00:14:43;5.40;1.00
34572;DHT22;20808;48.974;8.452;2023-03-08T00:15:00;5.40;1.00
34572;DHT22;20808;48.974;8.452;2023-03-08T00:15:16;5.40;1.00
34572;DHT22;20808;48.974;8.452;2023-03-08T00:15:32;5.40;1.00
34572;DHT22;20808;48.974;8.452;2023-03-08T00:15:47;5.40;1.00
34572;DHT22;20808;48.974;8.452;2023-03-08T00:16:05;5.40;1.00
34572;DHT22;20808;48.974;8.452;2023-03-08T00:16:22;5.40;1.00
34572;DHT22;20808;48.974;8.452;2023-03-08T00:16:38;5.40;1.00
34572;DHT22;20808;48.974;8.452;2023-03-08T00:16:54;5.30;1.00
34572;DHT22;20808;48.974;8.452;2023-03-08T00:17:10;5.30;1.00
34572;DHT22;20808;48.974;8.452;2023-03-08T00:17:27;5.30;1.00
34572;DHT22;20808;48.974;8.452;2023-03-08T00:17:43;5.30;1.00
34572;DHT22;20808;48.974;8.452;2023-03-08T00:17:58;5.30;1.00
34572;DHT22;20808;48.974;8.452;2023-03-08T00:18:15;5.30;1.00
34572;DHT22;20808;48.974;8.452;2023-03-08T00:18:31;5.30;1.00
34572;DHT22;20808;48.974;8.452;2023-03-08T00:18:48;5.30;1.00
34572;DHT22;20808;48.974;8.452;2023-03-08T00:19:04;5.30;1.00
34572;DHT22;20808;48.974;8.452;2023-03-08T00:19:20;5.30;1.00
34572;DHT22;20808;48.974;8.452;2023-03-08T00:19:37;5.30;1.00
34572;DHT22;20808;48.974;8.452;2023-03-08T00:19:53;5.30;1.00
34572;DHT22;20808;48.974;8.452;2023-03-08T00:20:10;5.30;1.00
34572;DHT22;20808;48.974;8.452;2023-03-08T00:20:27;5.30;1.00
34572;DHT22;20808;48.974;8.452;2023-03-08T00:20:43;5.30;1.00
34572;DHT22;20808;48.974;8.452;2023-03-08T00:21:00;5.30;1.00
34572;DHT22;20808;48.974;8.452;2023-03-08T00:21:17;5.30;1.00
34572;DHT22;20808;48.974;8.452;2023-03-08T00:21:33;5.30;1.00
34572;DHT22;20808;48.974;8.452;2023-03-08T00:21:49;5.30;1.00
34572;DHT22;20808;48.974;8.452;2023-03-08T00:22:05;5.30;1.00
34572;DHT22;20808;48.974;8.452;2023-03-08T00:22:22;5.30;1.00
34572;DHT22;20808;48.974;8.452;2023-03-08T00:22:39;5.30;1.00
34572;DHT22;20808;48.974;8.452;2023-03-08T00:22:56;5.30;1.00
34572;DHT22;20808;48.974;8.452;2023-03-08T00:23:12;5.30;1.00
34572;DHT22;20808;48.974;8.452;2023-03-08T00:23:28;5.30;1.00
34572;DHT22;20808;48.974;8.452;2023-03-08T00:23:44;5.30;1.00
34572;DHT22;20808;48.974;8.452;2023-03-08T00:24:00;5.30;1.00
34572;DHT22;20808;48.974;8.452;2023-03-08T00:24:16;5.30;1.00
34572;DHT22;20808;48.974;8.452;2023-03-08T00:24:34;5.30;1.00
34572;DHT22;20808;48.974;8.452;2023-03-08T00:24:51;5.30;1.00
34572;DHT22;20808;48.974;8.452;2023-03-08T00:25:08;5.30;1.00
34572;DHT22;20808;48.974;8.452;2023-03-08T00:25:25;5.30;1.00
34572;DHT22;20808;48.974;8.452;2023-03-08T00:25:40;5.30;1.00
34572;DHT22;20808;48.974;8.452;2023-03-08T00:25:56;5.30;1.00
34572;DHT22;20808;48.974;8.452;2023-03-08T00:26:12;5.40;1.00
34572;DHT22;20808;48.974;8.452;2023-03-08T00:26:30;5.40;1.00
34572;DHT22;20808;48.974;8.452;2023-03-08T00:26:46;5.40;1.00
34572;DHT22;20808;48.974;8.452;2023-03-08T00:27:02;5.40;1.00
34572;DHT22;20808;48.974;8.452;2023-03-08T00:27:18;5.40;1.00
34572;DHT22;20808;48.974;8.452;2023-03-08T00:27:35;5.40;1.00
34572;DHT22;20808;48.974;8.452;2023-03-08T00:27:50;5.40;1.00
34572;DHT22;20808;48.974;8.452;2023-03-08T00:28:07;5.40;1.00
34572;DHT22;20808;48.974;8.452;2023-03-08T00:28:23;5.40;1.00
34572;DHT22;20808;48.974;8.452;2023-03-08T00:28:39;5.40;1.00
34572;DHT22;20808;48.974;8.452;2023-03-08T00:28:55;5.40;1.00
34572;DHT22;20808;48.974;8.452;2023-03-08T00:29:11;5.40;1.00
34572;DHT22;20808;48.974;8.452;2023-03-08T00:29:28;5.40;1.00
34572;DHT22;20808;48.974;8.452;2023-03-08T00:29:44;5.40;1.00
34572;DHT22;20808;48.974;8.452;2023-03-08T00:30:00;5.40;1.00
34572;DHT22;20808;48.974;8.452;2023-03-08T00:30:16;5.40;1.00
34572;DHT22;20808;48.974;8.452;2023-03-08T00:30:32;5.30;1.00
34572;DHT22;20808;48.974;8.452;2023-03-08T00:30:54;5.30;1.00
34572;DHT22;20808;48.974;8.452;2023-03-08T00:31:11;5.30;1.00
34572;DHT22;20808;48.974;8.452;2023-03-08T00:31:28;5.30;1.00
34572;DHT22;20808;48.974;8.452;2023-03-08T00:31:44;5.30;1.00
34572;DHT22;20808;48.974;8.452;2023-03-08T00:32:00;5.20;1.00
34572;DHT22;20808;48.974;8.452;2023-03-08T00:32:16;5.20;1.00
34572;DHT22;20808;48.974;8.452;2023-03-08T00:32:32;5.20;1.00
34572;DHT22;20808;48.974;8.452;2023-03-08T00:32:47;5.20;1.00
34572;DHT22;20808;48.974;8.452;2023-03-08T00:33:04;5.20;1.00
34572;DHT22;20808;48.974;8.452;2023-03-08T00:33:20;5.20;1.00
34572;DHT22;20808;48.974;8.452;2023-03-08T00:33:36;5.20;1.00
34572;DHT22;20808;48.974;8.452;2023-03-08T00:33:53;5.20;1.00
34572;DHT22;20808;48.974;8.452;2023-03-08T00:34:09;5.20;1.00
34572;DHT22;20808;48.974;8.452;2023-03-08T00:34:26;5.20;1.00
34572;DHT22;20808;48.974;8.452;2023-03-08T00:34:42;5.20;1.00
34572;DHT22;20808;48.974;8.452;2023-03-08T00:35:01;5.20;1.00
34572;DHT22;20808;48.974;8.452;2023-03-08T00:35:17;5.20;1.00
34572;DHT22;20808;48.974;8.452;2023-03-08T00:35:34;5.20;1.00
34572;DHT22;20808;48.974;8.452;2023-03-08T00:35:57;5.20;1.00
34572;DHT22;20808;48.974;8.452;2023-03-08T00:36:15;5.20;1.00
34572;DHT22;20808;48.974;8.452;2023-03-08T00:36:32;5.10;1.00
34572;DHT22;20808;48.974;8.452;2023-03-08T00:36:48;5.10;1.00
34572;DHT22;20808;48.974;8.452;2023-03-08T00:37:03;5.10;1.00
34572;DHT22;20808;48.974;8.452;2023-03-08T00:37:21;5.10;1.00
34572;DHT22;20808;48.974;8.452;2023-03-08T00:37:37;5.10;1.00
34572;DHT22;20808;48.974;8.452;2023-03-08T00:37:54;5.10;1.00
34572;DHT22;20808;48.974;8.452;2023-03-08T00:38:09;5.10;1.00
34572;DHT22;20808;48.974;8.452;2023-03-08T00:38:26;5.10;1.00
34572;DHT22;20808;48.974;8.452;2023-03-08T00:38:42;5.10;1.00
34572;DHT22;20808;48.974;8.452;2023-03-08T00:38:58;5.10;1.00
34572;DHT22;20808;48.974;8.452;2023-03-08T00:39:14;5.10;1.00
34572;DHT22;20808;48.974;8.452;2023-03-08T00:39:31;5.10;1.00
34572;DHT22;20808;48.974;8.452;2023-03-08T00:39:49;5.10;1.00
34572;DHT22;20808;48.974;8.452;2023-03-08T00:40:07;5.10;1.00
34572;DHT22;20808;48.974;8.452;2023-03-08T00:40:23;5.10;1.00
34572;DHT22;20808;48.974;8.452;2023-03-08T00:40:39;5.10;1.00
34572;DHT22;20808;48.974;8.452;2023-03-08T00:40:55;5.10;1.00
34572;DHT22;20808;48.974;8.452;2023-03-08T00:41:11;5.10;1.00
34572;DHT22;20808;48.974;8.452;2023-03-08T00:41:27;5.10;1.00
34572;DHT22;20808;48.974;8.452;2023-03-08T00:41:43;5.10;1.00
34572;DHT22;20808;48.974;8.452;2023-03-08T00:41:59;5.10;1.00
34572;DHT22;20808;48.974;8.452;2023-03-08T00:42:15;5.10;1.00
34572;DHT22;20808;48.974;8.452;2023-03-08T00:42:31;5.10;1.00
34572;DHT22;20808;48.974;8.452;2023-03-08T00:42:47;5.00;1.00
34572;DHT22;20808;48.974;8.452;2023-03-08T00:43:03;5.10;1.00
34572;DHT22;20808;48.974;8.452;2023-03-08T00:43:19;5.10;1.00
34572;DHT22;20808;48.974;8.452;2023-03-08T00:43:35;5.10;1.00
34572;DHT22;20808;48.974;8.452;2023-03-08T00:43:51;5.10;1.00
34572;DHT22;20808;48.974;8.452;2023-03-08T00:44:07;5.10;1.00
34572;DHT22;20808;48.974;8.452;2023-03-08T00:44:24;5.10;1.00
34572;DHT22;20808;48.974;8.452;2023-03-08T00:44:40;5.10;1.00
34572;DHT22;20808;48.974;8.452;2023-03-08T00:44:56;5.10;1.00
34572;DHT22;20808;48.974;8.452;2023-03-08T00:45:12;5.10;1.00
34572;DHT22;20808;48.974;8.452;2023-03-08T00:45:27;5.10;1.00
34572;DHT22;20808;48.974;8.452;2023-03-08T00:45:44;5.10;1.00
34572;DHT22;20808;48.974;8.452;2023-03-08T00:46:00;5.10;1.00
34572;DHT22;20808;48.974;8.452;2023-03-08T00:46:17;5.10;1.00
34572;DHT22;20808;48.974;8.452;2023-03-08T00:46:33;5.10;1.00
34572;DHT22;20808;48.974;8.452;2023-03-08T00:46:48;5.10;1.00
34572;DHT22;20808;48.974;8.452;2023-03-08T00:47:04;5.00;1.00
34572;DHT22;20808;48.974;8.452;2023-03-08T00:47:21;5.00;1.00
34572;DHT22;20808;48.974;8.452;2023-03-08T00:47:37;5.00;1.00
34572;DHT22;20808;48.974;8.452;2023-03-08T00:47:53;5.00;1.00
34572;DHT22;20808;48.974;8.452;2023-03-08T00:48:09;5.00;1.00
34572;DHT22;20808;48.974;8.452;2023-03-08T00:48:26;5.00;1.00
34572;DHT22;20808;48.974;8.452;2023-03-08T00:48:42;5.00;1.00
34572;DHT22;20808;48.974;8.452;2023-03-08T00:48:58;5.00;1.00
34572;DHT22;20808;48.974;8.452;2023-03-08T00:49:14;5.00;1.00
34572;DHT22;20808;48.974;8.452;2023-03-08T00:49:30;5.00;1.00
34572;DHT22;20808;48.974;8.452;2023-03-08T00:49:46;5.00;1.00
34572;DHT22;20808;48.974;8.452;2023-03-08T00:50:01;5.00;1.00
34572;DHT22;20808;48.974;8.452;2023-03-08T00:50:18;5.00;1.00
34572;DHT22;20808;48.974;8.452;2023-03-08T00:50:34;5.00;1.00
34572;DHT22;20808;48.974;8.452;2023-03-08T00:50:50;5.00;1.00
34572;DHT22;20808;48.974;8.452;2023-03-08T00:51:06;5.00;1.00
34572;DHT22;20808;48.974;8.452;2023-03-08T00:51:22;4.90;1.00
34572;DHT22;20808;48.974;8.452;2023-03-08T00:51:39;4.90;1.00
34572;DHT22;20808;48.974;8.452;2023-03-08T00:51:55;4.90;1.00
34572;DHT22;20808;48.974;8.452;2023-03-08T00:52:11;4.90;1.00
34572;DHT22;20808;48.974;8.452;2023-03-08T00:52:28;4.90;1.00
34572;DHT22;20808;48.974;8.452;2023-03-08T00:52:44;4.90;1.00
34572;DHT22;20808;48.974;8.452;2023-03-08T00:52:59;4.90;1.00
34572;DHT22;20808;48.974;8.452;2023-03-08T00:53:16;4.90;1.00
34572;DHT22;20808;48.974;8.452;2023-03-08T00:53:33;4.90;1.00
34572;DHT22;20808;48.974;8.452;2023-03-08T00:53:49;4.90;1.00
34572;DHT22;20808;48.974;8.452;2023-03-08T00:54:05;4.90;1.00
34572;DHT22;20808;48.974;8.452;2023-03-08T00:54:21;4.90;1.00
34572;DHT22;20808;48.974;8.452;2023-03-08T00:54:38;4.90;1.00
34572;DHT22;20808;48.974;8.452;2023-03-08T00:54:54;4.90;1.00
34572;DHT22;20808;48.974;8.452;2023-03-08T00:55:09;4.90;1.00
34572;DHT22;20808;48.974;8.452;2023-03-08T00:55:25;4.90;1.00
34572;DHT22;20808;48.974;8.452;2023-03-08T00:55:47;4.90;1.00
34572;DHT22;20808;48.974;8.452;2023-03-08T00:56:04;4.90;1.00
34572;DHT22;20808;48.974;8.452;2023-03-08T00:56:21;4.90;1.00
34572;DHT22;20808;48.974;8.452;2023-03-08T00:56:36;4.90;1.00
34572;DHT22;20808;48.974;8.452;2023-03-08T00:56:52;4.90;1.00
34572;DHT22;20808;48.974;8.452;2023-03-08T00:57:08;4.90;1.00
34572;DHT22;20808;48.974;8.452;2023-03-08T00:57:24;4.90;1.00
34572;DHT22;20808;48.974;8.452;2023-03-08T00:57:40;4.90;1.00
34572;DHT22;20808;48.974;8.452;2023-03-08T00:57:57;4.90;1.00
34572;DHT22;20808;48.974;8.452;2023-03-08T00:58:12;4.90;1.00
34572;DHT22;20808;48.974;8.452;2023-03-08T00:58:29;4.90;1.00
34572;DHT22;20808;48.974;8.452;2023-03-08T00:58:45;4.90;1.00
34572;DHT22;20808;48.974;8.452;2023-03-08T00:59:02;4.90;1.00
34572;DHT22;20808;48.974;8.452;2023-03-08T00:59:18;4.90;1.00
34572;DHT22;20808;48.974;8.452;2023-03-08T00:59:34;4.90;1.00
34572;DHT22;20808;48.974;8.452;2023-03-08T00:59:50;4.90;1.00
34572;DHT22;20808;48.974;8.452;2023-03-08T01:00:07;4.90;1.00
34572;DHT22;20808;48.974;8.452;2023-03-08T01:00:27;4.90;1.00
34572;DHT22;20808;48.974;8.452;2023-03-08T01:00:43;4.90;1.00
34572;DHT22;20808;48.974;8.452;2023-03-08T01:01:00;4.90;1.00
34572;DHT22;20808;48.974;8.452;2023-03-08T01:01:18;4.90;1.00
34572;DHT22;20808;48.974;8.452;2023-03-08T01:01:34;4.90;1.00
34572;DHT22;20808;48.974;8.452;2023-03-08T01:01:51;4.90;1.00
34572;DHT22;20808;48.974;8.452;2023-03-08T01:02:07;4.90;1.00
34572;DHT22;20808;48.974;8.452;2023-03-08T01:02:24;4.90;1.00
34572;DHT22;20808;48.974;8.452;2023-03-08T01:02:41;4.90;1.00
34572;DHT22;20808;48.974;8.452;2023-03-08T01:02:57;4.90;1.00
34572;DHT22;20808;48.974;8.452;2023-03-08T01:03:14;4.80;1.00
34572;DHT22;20808;48.974;8.452;2023-03-08T01:03:30;4.90;1.00
34572;DHT22;20808;48.974;8.452;2023-03-08T01:03:45;4.90;1.00
34572;DHT22;20808;48.974;8.452;2023-03-08T01:04:01;4.80;1.00
34572;DHT22;20808;48.974;8.452;2023-03-08T01:04:18;4.80;1.00
34572;DHT22;20808;48.974;8.452;2023-03-08T01:04:34;4.90;1.00
34572;DHT22;20808;48.974;8.452;2023-03-08T01:04:50;4.80;1.00
34572;DHT22;20808;48.974;8.452;2023-03-08T01:05:07;4.80;1.00
34572;DHT22;20808;48.974;8.452;2023-03-08T01:05:23;4.80;1.00
34572;DHT22;20808;48.974;8.452;2023-03-08T01:05:39;4.80;1.00
34572;DHT22;20808;48.974;8.452;2023-03-08T01:05:58;4.80;1.00
34572;DHT22;20808;48.974;8.452;2023-03-08T01:06:13;4.80;1.00
34572;DHT22;20808;48.974;8.452;2023-03-08T01:06:29;4.80;1.00
34572;DHT22;20808;48.974;8.452;2023-03-08T01:06:45;4.80;1.00
34572;DHT22;20808;48.974;8.452;2023-03-08T01:07:01;4.80;1.00
34572;DHT22;20808;48.974;8.452;2023-03-08T01:07:17;4.80;1.00
34572;DHT22;20808;48.974;8.452;2023-03-08T01:07:35;4.80;1.00
34572;DHT22;20808;48.974;8.452;2023-03-08T01:07:51;4.80;1.00
34572;DHT22;20808;48.974;8.452;2023-03-08T01:08:07;4.80;1.00
34572;DHT22;20808;48.974;8.452;2023-03-08T01:08:24;4.80;1.00
34572;DHT22;20808;48.974;8.452;2023-03-08T01:08:40;4.80;1.00
34572;DHT22;20808;48.974;8.452;2023-03-08T01:08:57;4.80;1.00
34572;DHT22;20808;48.974;8.452;2023-03-08T01:09:13;4.80;1.00
34572;DHT22;20808;48.974;8.452;2023-03-08T01:09:29;4.80;1.00
34572;DHT22;20808;48.974;8.452;2023-03-08T01:09:44;4.80;1.00
34572;DHT22;20808;48.974;8.452;2023-03-08T01:10:00;4.80;1.00
34572;DHT22;20808;48.974;8.452;2023-03-08T01:10:18;4.80;1.00
34572;DHT22;20808;48.974;8.452;2023-03-08T01:10:35;4.80;1.00
34572;DHT22;20808;48.974;8.452;2023-03-08T01:10:52;4.70;1.00
34572;DHT22;20808;48.974;8.452;2023-03-08T01:11:15;4.70;1.00
34572;DHT22;20808;48.974;8.452;2023-03-08T01:11:31;4.70;1.00
34572;DHT22;20808;48.974;8.452;2023-03-08T01:11:47;4.70;1.00
34572;DHT22;20808;48.974;8.452;2023-03-08T01:12:04;4.70;1.00
34572;DHT22;20808;48.974;8.452;2023-03-08T01:12:20;4.70;1.00
34572;DHT22;20808;48.974;8.452;2023-03-08T01:12:37;4.70;1.00
34572;DHT22;20808;48.974;8.452;2023-03-08T01:12:53;4.70;1.00
34572;DHT22;20808;48.974;8.452;2023-03-08T01:13:09;4.70;1.00
34572;DHT22;20808;48.974;8.452;2023-03-08T01:13:26;4.70;1.00
34572;DHT22;20808;48.974;8.452;2023-03-08T01:13:43;4.60;1.00
34572;DHT22;20808;48.974;8.452;2023-03-08T01:13:59;4.60;1.00
34572;DHT22;20808;48.974;8.452;2023-03-08T01:14:15;4.60;1.00
34572;DHT22;20808;48.974;8.452;2023-03-08T01:14:31;4.60;1.00
34572;DHT22;20808;48.974;8.452;2023-03-08T01:14:48;4.60;1.00
34572;DHT22;20808;48.974;8.452;2023-03-08T01:15:05;4.60;1.00
34572;DHT22;20808;48.974;8.452;2023-03-08T01:15:21;4.60;1.00
34572;DHT22;20808;48.974;8.452;2023-03-08T01:15:37;4.60;1.00
34572;DHT22;20808;48.974;8.452;2023-03-08T01:15:53;4.60;1.00
34572;DHT22;20808;48.974;8.452;2023-03-08T01:16:15;4.60;1.00
34572;DHT22;20808;48.974;8.452;2023-03-08T01:16:32;4.60;1.00
34572;DHT22;20808;48.974;8.452;2023-03-08T01:16:48;4.60;1.00
34572;DHT22;20808;48.974;8.452;2023-03-08T01:17:04;4.60;1.00
34572;DHT22;20808;48.974;8.452;2023-03-08T01:17:20;4.60;1.00
34572;DHT22;20808;48.974;8.452;2023-03-08T01:17:36;4.60;1.00
34572;DHT22;20808;48.974;8.452;2023-03-08T01:17:53;4.60;1.00
34572;DHT22;20808;48.974;8.452;2023-03-08T01:18:09;4.60;1.00
34572;DHT22;20808;48.974;8.452;2023-03-08T01:18:25;4.60;1.00
34572;DHT22;20808;48.974;8.452;2023-03-08T01:18:42;4.60;1.00
34572;DHT22;20808;48.974;8.452;2023-03-08T01:18:59;4.60;1.00
34572;DHT22;20808;48.974;8.452;2023-03-08T01:19:16;4.60;1.00
34572;DHT22;20808;48.974;8.452;2023-03-08T01:19:32;4.60;1.00
34572;DHT22;20808;48.974;8.452;2023-03-08T01:19:48;4.60;1.00
34572;DHT22;20808;48.974;8.452;2023-03-08T01:20:05;4.60;1.00
34572;DHT22;20808;48.974;8.452;2023-03-08T01:20:22;4.60;1.00
34572;DHT22;20808;48.974;8.452;2023-03-08T01:20:38;4.60;1.00
34572;DHT22;20808;48.974;8.452;2023-03-08T01:20:56;4.60;1.00
34572;DHT22;20808;48.974;8.452;2023-03-08T01:21:12;4.60;1.00
34572;DHT22;20808;48.974;8.452;2023-03-08T01:21:29;4.60;1.00
34572;DHT22;20808;48.974;8.452;2023-03-08T01:21:45;4.60;1.00
34572;DHT22;20808;48.974;8.452;2023-03-08T01:22:01;4.60;1.00
34572;DHT22;20808;48.974;8.452;2023-03-08T01:22:18;4.60;1.00
34572;DHT22;20808;48.974;8.452;2023-03-08T01:22:35;4.60;1.00
34572;DHT22;20808;48.974;8.452;2023-03-08T01:22:51;4.60;1.00
34572;DHT22;20808;48.974;8.452;2023-03-08T01:23:07;4.60;1.00
34572;DHT22;20808;48.974;8.452;2023-03-08T01:23:23;4.50;1.00
34572;DHT22;20808;48.974;8.452;2023-03-08T01:23:39;4.60;1.00
34572;DHT22;20808;48.974;8.452;2023-03-08T01:23:55;4.50;1.00
34572;DHT22;20808;48.974;8.452;2023-03-08T01:24:12;4.50;1.00
34572;DHT22;20808;48.974;8.452;2023-03-08T01:24:28;4.50;1.00
34572;DHT22;20808;48.974;8.452;2023-03-08T01:24:44;4.50;1.00
34572;DHT22;20808;48.974;8.452;2023-03-08T01:25:00;4.50;1.00
34572;DHT22;20808;48.974;8.452;2023-03-08T01:25:16;4.50;1.00
34572;DHT22;20808;48.974;8.452;2023-03-08T01:25:32;4.50;1.00
34572;DHT22;20808;48.974;8.452;2023-03-08T01:25:57;4.50;1.00
34572;DHT22;20808;48.974;8.452;2023-03-08T01:26:14;4.50;1.00
34572;DHT22;20808;48.974;8.452;2023-03-08T01:26:30;4.50;1.00
34572;DHT22;20808;48.974;8.452;2023-03-08T01:26:46;4.50;1.00
34572;DHT22;20808;48.974;8.452;2023-03-08T01:27:02;4.50;1.00
34572;DHT22;20808;48.974;8.452;2023-03-08T01:27:19;4.50;1.00
34572;DHT22;20808;48.974;8.452;2023-03-08T01:27:35;4.50;1.00
34572;DHT22;20808;48.974;8.452;2023-03-08T01:27:51;4.50;1.00
34572;DHT22;20808;48.974;8.452;2023-03-08T01:28:07;4.50;1.00
34572;DHT22;20808;48.974;8.452;2023-03-08T01:28:23;4.50;1.00
34572;DHT22;20808;48.974;8.452;2023-03-08T01:28:39;4.50;1.00
34572;DHT22;20808;48.974;8.452;2023-03-08T01:28:56;4.50;1.00
34572;DHT22;20808;48.974;8.452;2023-03-08T01:29:12;4.50;1.00
34572;DHT22;20808;48.974;8.452;2023-03-08T01:29:28;4.50;1.00
34572;DHT22;20808;48.974;8.452;2023-03-08T01:29:44;4.50;1.00
34572;DHT22;20808;48.974;8.452;2023-03-08T01:30:00;4.50;1.00
34572;DHT22;20808;48.974;8.452;2023-03-08T01:30:16;4.40;1.00
34572;DHT22;20808;48.974;8.452;2023-03-08T01:30:33;4.40;1.00
34572;DHT22;20808;48.974;8.452;2023-03-08T01:30:49;4.40;1.00
34572;DHT22;20808;48.974;8.452;2023-03-08T01:31:07;4.40;1.00
34572;DHT22;20808;48.974;8.452;2023-03-08T01:31:25;4.40;1.00
34572;DHT22;20808;48.974;8.452;2023-03-08T01:31:41;4.40;1.00
34572;DHT22;20808;48.974;8.452;2023-03-08T01:31:58;4.30;1.00
34572;DHT22;20808;48.974;8.452;2023-03-08T01:32:14;4.30;1.00
34572;DHT22;20808;48.974;8.452;2023-03-08T01:32:30;4.30;1.00
34572;DHT22;20808;48.974;8.452;2023-03-08T01:32:46;4.30;1.00
34572;DHT22;20808;48.974;8.452;2023-03-08T01:33:02;4.30;1.00
34572;DHT22;20808;48.974;8.452;2023-03-08T01:33:18;4.30;1.00
34572;DHT22;20808;48.974;8.452;2023-03-08T01:33:35;4.30;1.00
34572;DHT22;20808;48.974;8.452;2023-03-08T01:33:51;4.30;1.00
34572;DHT22;20808;48.974;8.452;2023-03-08T01:34:08;4.30;1.00
34572;DHT22;20808;48.974;8.452;2023-03-08T01:34:24;4.30;1.00
34572;DHT22;20808;48.974;8.452;2023-03-08T01:34:41;4.30;1.00
34572;DHT22;20808;48.974;8.452;2023-03-08T01:34:57;4.30;1.00
34572;DHT22;20808;48.974;8.452;2023-03-08T01:35:17;4.30;1.00
34572;DHT22;20808;48.974;8.452;2023-03-08T01:35:33;4.30;1.00
34572;DHT22;20808;48.974;8.452;2023-03-08T01:35:49;4.30;1.00
34572;DHT22;20808;48.974;8.452;2023-03-08T01:36:06;4.30;1.00
34572;DHT22;20808;48.974;8.452;2023-03-08T01:36:25;4.30;1.00
34572;DHT22;20808;48.974;8.452;2023-03-08T01:36:41;4.30;1.00
34572;DHT22;20808;48.974;8.452;2023-03-08T01:36:57;4.30;1.00
34572;DHT22;20808;48.974;8.452;2023-03-08T01:37:13;4.30;1.00
34572;DHT22;20808;48.974;8.452;2023-03-08T01:37:29;4.30;1.00
34572;DHT22;20808;48.974;8.452;2023-03-08T01:37:49;4.30;1.00
34572;DHT22;20808;48.974;8.452;2023-03-08T01:38:07;4.30;1.00
34572;DHT22;20808;48.974;8.452;2023-03-08T01:38:24;4.20;1.00
34572;DHT22;20808;48.974;8.452;2023-03-08T01:38:40;4.20;1.00
34572;DHT22;20808;48.974;8.452;2023-03-08T01:38:59;4.20;1.00
34572;DHT22;20808;48.974;8.452;2023-03-08T01:39:15;4.30;1.00
34572;DHT22;20808;48.974;8.452;2023-03-08T01:39:32;4.30;1.00
34572;DHT22;20808;48.974;8.452;2023-03-08T01:39:47;4.30;1.00
34572;DHT22;20808;48.974;8.452;2023-03-08T01:40:04;4.30;1.00
34572;DHT22;20808;48.974;8.452;2023-03-08T01:40:21;4.30;1.00
34572;DHT22;20808;48.974;8.452;2023-03-08T01:40:37;4.30;1.00
34572;DHT22;20808;48.974;8.452;2023-03-08T01:40:56;4.30;1.00
34572;DHT22;20808;48.974;8.452;2023-03-08T01:41:15;4.30;1.00
34572;DHT22;20808;48.974;8.452;2023-03-08T01:41:32;4.30;1.00
34572;DHT22;20808;48.974;8.452;2023-03-08T01:41:48;4.30;1.00
34572;DHT22;20808;48.974;8.452;2023-03-08T01:42:04;4.30;1.00
34572;DHT22;20808;48.974;8.452;2023-03-08T01:42:22;4.30;1.00
34572;DHT22;20808;48.974;8.452;2023-03-08T01:42:39;4.30;1.00
34572;DHT22;20808;48.974;8.452;2023-03-08T01:42:55;4.30;1.00
34572;DHT22;20808;48.974;8.452;2023-03-08T01:43:21;4.30;1.00
34572;DHT22;20808;48.974;8.452;2023-03-08T01:43:38;4.30;1.00
34572;DHT22;20808;48.974;8.452;2023-03-08T01:43:54;4.20;1.00
34572;DHT22;20808;48.974;8.452;2023-03-08T01:44:14;4.20;1.00
34572;DHT22;20808;48.974;8.452;2023-03-08T01:44:48;4.20;1.00
34572;DHT22;20808;48.974;8.452;2023-03-08T01:45:05;4.20;1.00
34572;DHT22;20808;48.974;8.452;2023-03-08T01:46:16;4.20;1.00
34572;DHT22;20808;48.974;8.452;2023-03-08T01:46:35;4.20;1.00
34572;DHT22;20808;48.974;8.452;2023-03-08T01:46:51;4.20;1.00
34572;DHT22;20808;48.974;8.452;2023-03-08T01:47:12;4.20;1.00
34572;DHT22;20808;48.974;8.452;2023-03-08T01:47:33;4.20;1.00
34572;DHT22;20808;48.974;8.452;2023-03-08T01:47:50;4.20;1.00
34572;DHT22;20808;48.974;8.452;2023-03-08T01:48:06;4.20;1.00
34572;DHT22;20808;48.974;8.452;2023-03-08T01:48:24;4.20;1.00
34572;DHT22;20808;48.974;8.452;2023-03-08T01:48:47;4.20;1.00
34572;DHT22;20808;48.974;8.452;2023-03-08T01:49:07;4.20;1.00
34572;DHT22;20808;48.974;8.452;2023-03-08T01:49:26;4.20;1.00
34572;DHT22;20808;48.974;8.452;2023-03-08T01:49:43;4.10;1.00